createdAt,value
2022-10-25T00:00:51.108Z,11.50
2022-10-25T00:03:17.663Z,11.50
2022-10-25T00:05:44.223Z,11.60
2022-10-25T00:08:10.876Z,11.60
2022-10-25T00:10:38.085Z,11.70
2022-10-25T00:13:05.798Z,11.60
2022-10-25T00:15:32.522Z,11.60
2022-10-25T00:17:59.164Z,11.60
2022-10-25T00:20:25.735Z,11.60
2022-10-25T00:22:52.461Z,11.60
2022-10-25T00:25:19.195Z,11.60
2022-10-25T00:27:45.787Z,11.50
2022-10-25T00:30:13.460Z,11.50
2022-10-25T00:32:40.045Z,11.50
2022-10-25T00:35:06.894Z,11.40
2022-10-25T00:37:33.515Z,11.40
2022-10-25T00:40:00.209Z,11.40
2022-10-25T00:42:27.377Z,11.40
2022-10-25T00:45:18.694Z,11.40
2022-10-25T00:48:06.547Z,11.40
2022-10-25T00:50:51.903Z,11.50
2022-10-25T00:53:32.469Z,11.40
2022-10-25T00:56:05.050Z,11.40
2022-10-25T00:58:35.757Z,11.40
2022-10-25T01:01:06.446Z,11.40
2022-10-25T01:03:36.973Z,11.50
2022-10-25T01:06:07.535Z,11.50
2022-10-25T01:08:34.373Z,11.60
2022-10-25T01:11:00.944Z,11.50
2022-10-25T01:13:27.556Z,11.60
2022-10-25T01:16:16.975Z,11.70
2022-10-25T01:19:02.234Z,11.70
2022-10-25T01:21:43.879Z,11.70
2022-10-25T01:24:39.789Z,11.70
2022-10-25T01:27:31.270Z,11.70
2022-10-25T01:30:09.063Z,11.70
2022-10-25T01:32:42.036Z,11.70
2022-10-25T01:35:19.653Z,11.70
2022-10-25T01:38:05.388Z,11.80
2022-10-25T01:40:38.683Z,11.80
2022-10-25T01:43:33.768Z,11.80
2022-10-25T01:46:16.070Z,11.80
2022-10-25T01:48:47.004Z,11.80
2022-10-25T01:51:16.939Z,11.80
2022-10-25T01:53:48.559Z,11.80
2022-10-25T01:56:46.661Z,11.80
2022-10-25T01:59:39.438Z,11.90
2022-10-25T02:02:17.357Z,11.80
2022-10-25T02:05:05.721Z,11.90
2022-10-25T02:08:00.359Z,11.90
2022-10-25T02:10:41.991Z,11.80
2022-10-25T02:13:34.115Z,11.90
2022-10-25T02:16:13.691Z,11.90
2022-10-25T02:18:47.070Z,11.90
2022-10-25T02:21:16.265Z,11.80
2022-10-25T02:23:43.366Z,11.90
2022-10-25T02:26:11.276Z,11.90
2022-10-25T02:28:40.513Z,11.90
2022-10-25T02:31:15.278Z,11.90
2022-10-25T02:33:45.207Z,11.90
2022-10-25T02:36:23.127Z,11.80
2022-10-25T02:38:51.953Z,11.80
2022-10-25T02:41:19.876Z,11.80
2022-10-25T02:43:46.474Z,11.80
2022-10-25T02:46:16.762Z,11.80
2022-10-25T02:48:44.139Z,11.70
2022-10-25T02:51:11.943Z,11.70
2022-10-25T02:53:39.089Z,11.70
2022-10-25T02:56:15.503Z,11.80
2022-10-25T02:58:43.875Z,11.80
2022-10-25T03:01:11.218Z,11.80
2022-10-25T03:03:38.298Z,11.80
2022-10-25T03:06:05.559Z,11.70
2022-10-25T03:08:32.625Z,11.70
2022-10-25T03:10:59.596Z,11.70
2022-10-25T03:13:26.377Z,11.80
2022-10-25T03:15:52.989Z,11.80
2022-10-25T03:18:19.588Z,11.70
2022-10-25T03:20:46.184Z,11.70
2022-10-25T03:23:13.023Z,11.70
2022-10-25T03:25:40.223Z,11.60
2022-10-25T03:28:07.603Z,11.50
2022-10-25T03:30:35.103Z,11.50
2022-10-25T03:33:01.909Z,11.50
2022-10-25T03:35:28.514Z,11.50
2022-10-25T03:37:55.415Z,11.50
2022-10-25T03:40:24.030Z,11.60
2022-10-25T03:42:50.760Z,11.60
2022-10-25T03:45:17.710Z,11.60
2022-10-25T03:47:45.491Z,11.60
2022-10-25T03:50:13.198Z,11.60
2022-10-25T03:52:40.049Z,11.60
2022-10-25T03:55:07.661Z,11.60
2022-10-25T03:57:34.450Z,11.60
2022-10-25T04:00:01.069Z,11.60
2022-10-25T04:02:28.548Z,11.60
2022-10-25T04:04:55.612Z,11.60
2022-10-25T04:07:22.359Z,11.60
2022-10-25T04:09:48.969Z,11.70
2022-10-25T04:12:16.681Z,11.70
2022-10-25T04:14:43.413Z,11.70
2022-10-25T04:17:10.164Z,11.70
2022-10-25T04:19:36.801Z,11.70
2022-10-25T04:22:03.499Z,11.70
2022-10-25T04:24:30.306Z,11.70
2022-10-25T04:26:56.915Z,11.70
2022-10-25T04:29:23.854Z,11.70
2022-10-25T04:31:50.526Z,11.70
2022-10-25T04:34:17.404Z,11.70
2022-10-25T04:36:44.126Z,11.70
2022-10-25T04:39:10.892Z,11.70
2022-10-25T04:41:37.544Z,11.70
2022-10-25T04:44:04.236Z,11.80
2022-10-25T04:46:30.830Z,11.80
2022-10-25T04:48:57.476Z,11.80
2022-10-25T04:51:24.068Z,11.70
2022-10-25T04:53:53.943Z,11.70
2022-10-25T04:56:20.741Z,11.70
2022-10-25T04:58:47.660Z,11.70
2022-10-25T05:01:17.213Z,11.70
2022-10-25T05:03:44.395Z,11.70
2022-10-25T05:06:17.485Z,11.60
2022-10-25T05:08:47.084Z,11.70
2022-10-25T05:11:15.434Z,11.60
2022-10-25T05:13:43.198Z,11.60
2022-10-25T05:16:17.683Z,11.60
2022-10-25T05:18:47.260Z,11.60
2022-10-25T05:21:15.037Z,11.50
2022-10-25T05:23:42.233Z,11.50
2022-10-25T05:26:12.143Z,11.60
2022-10-25T05:28:40.045Z,11.50
2022-10-25T05:31:18.505Z,11.40
2022-10-25T05:33:46.609Z,11.30
2022-10-25T05:36:14.949Z,11.30
2022-10-25T05:38:42.564Z,11.20
2022-10-25T05:41:11.627Z,11.20
2022-10-25T05:43:38.306Z,11.20
2022-10-25T05:46:19.978Z,11.20
2022-10-25T05:48:48.964Z,11.20
2022-10-25T05:51:33.651Z,11.20
2022-10-25T05:54:03.566Z,11.20
2022-10-25T05:56:32.030Z,11.20
2022-10-25T05:59:02.345Z,11.20
2022-10-25T06:01:29.056Z,11.10
2022-10-25T06:03:56.177Z,11.20
2022-10-25T06:06:23.366Z,11.10
2022-10-25T06:08:50.537Z,11.10
2022-10-25T06:11:19.661Z,11.10
2022-10-25T06:13:46.952Z,11.20
2022-10-25T06:16:18.757Z,11.20
2022-10-25T06:18:46.044Z,11.20
2022-10-25T06:21:15.965Z,11.10
2022-10-25T06:23:43.313Z,11.20
2022-10-25T06:26:13.496Z,11.20
2022-10-25T06:28:40.723Z,11.20
2022-10-25T06:31:10.677Z,11.20
2022-10-25T06:33:38.046Z,11.10
2022-10-25T06:36:07.347Z,11.10
2022-10-25T06:38:34.120Z,11.00
2022-10-25T06:41:02.303Z,11.00
2022-10-25T06:43:29.661Z,11.00
2022-10-25T06:45:56.670Z,11.00
2022-10-25T06:48:23.417Z,11.00
2022-10-25T06:51:09.628Z,11.00
2022-10-25T06:53:38.023Z,11.10
2022-10-25T06:56:14.153Z,11.10
2022-10-25T06:58:41.807Z,11.10
2022-10-25T07:01:11.860Z,11.20
2022-10-25T07:03:39.305Z,11.20
2022-10-25T07:06:11.272Z,11.30
2022-10-25T07:08:42.892Z,11.20
2022-10-25T07:11:17.845Z,11.30
2022-10-25T07:13:45.385Z,11.30
2022-10-25T07:16:20.156Z,11.30
2022-10-25T07:18:47.939Z,11.40
2022-10-25T07:21:17.708Z,11.40
2022-10-25T07:23:45.227Z,11.50
2022-10-25T07:26:17.201Z,11.50
2022-10-25T07:28:45.639Z,11.50
2022-10-25T07:31:14.459Z,11.50
2022-10-25T07:33:41.355Z,11.50
2022-10-25T07:36:11.975Z,11.50
2022-10-25T07:38:39.266Z,11.60
2022-10-25T07:41:06.885Z,11.50
2022-10-25T07:43:34.070Z,11.60
2022-10-25T07:46:01.102Z,11.60
2022-10-25T07:48:28.880Z,11.70
2022-10-25T07:50:55.469Z,11.70
2022-10-25T07:53:22.054Z,11.70
2022-10-25T07:55:54.488Z,11.70
2022-10-25T07:58:21.395Z,11.80
2022-10-25T08:00:48.463Z,11.80
2022-10-25T08:03:17.197Z,11.90
2022-10-25T08:05:45.298Z,11.90
2022-10-25T08:08:12.538Z,12.00
2022-10-25T08:10:41.146Z,12.00
2022-10-25T08:13:08.774Z,12.10
2022-10-25T08:15:36.285Z,12.10
2022-10-25T08:18:04.387Z,12.10
2022-10-25T08:20:49.609Z,12.10
2022-10-25T08:23:19.018Z,12.20
2022-10-25T08:25:47.107Z,12.20
2022-10-25T08:28:14.200Z,12.30
2022-10-25T08:30:41.459Z,12.30
2022-10-25T08:33:11.367Z,12.30
2022-10-25T08:35:38.771Z,12.40
2022-10-25T08:38:06.258Z,12.40
2022-10-25T08:41:00.340Z,12.40
2022-10-25T08:46:44.428Z,12.50
2022-10-25T08:49:33.016Z,12.60
2022-10-25T08:52:01.244Z,12.60
2022-10-25T08:54:38.619Z,12.60
2022-10-25T08:57:15.031Z,12.70
2022-10-25T08:59:45.140Z,12.80
2022-10-25T09:02:45.851Z,12.80
2022-10-25T09:05:37.963Z,12.90
2022-10-25T09:08:34.063Z,12.90
2022-10-25T09:11:09.583Z,12.90
2022-10-25T09:13:52.940Z,13.00
2022-10-25T09:16:24.531Z,13.00
2022-10-25T09:18:57.076Z,13.10
2022-10-25T09:21:36.659Z,13.10
2022-10-25T09:24:20.286Z,13.20
2022-10-25T09:27:05.021Z,13.20
2022-10-25T09:29:47.888Z,13.20
2022-10-25T09:32:27.255Z,13.30
2022-10-25T09:34:54.814Z,13.30
2022-10-25T09:37:32.968Z,13.30
2022-10-25T09:40:05.017Z,13.40
2022-10-25T09:42:39.963Z,13.40
2022-10-25T09:45:21.542Z,13.40
2022-10-25T09:47:55.681Z,13.50
2022-10-25T09:50:30.288Z,13.50
2022-10-25T09:53:13.276Z,13.50
2022-10-25T09:55:49.930Z,13.50
2022-10-25T09:58:28.086Z,13.60
2022-10-25T10:00:57.480Z,13.60
2022-10-25T10:03:29.164Z,13.70
2022-10-25T10:06:00.362Z,13.70
2022-10-25T10:08:28.165Z,13.70
2022-10-25T10:10:56.384Z,13.70
2022-10-25T10:13:42.621Z,13.80
2022-10-25T10:16:22.936Z,13.80
2022-10-25T10:18:49.823Z,13.80
2022-10-25T10:21:20.249Z,13.90
2022-10-25T10:23:53.743Z,13.90
2022-10-25T10:26:34.809Z,14.00
2022-10-25T10:29:17.573Z,14.00
2022-10-25T10:31:48.227Z,14.00
2022-10-25T10:34:34.698Z,14.00
2022-10-25T10:37:14.060Z,14.10
2022-10-25T10:39:57.048Z,14.10
2022-10-25T10:42:37.005Z,14.10
2022-10-25T10:45:09.417Z,14.20
2022-10-25T10:47:49.498Z,14.20
2022-10-25T10:50:25.586Z,14.30
2022-10-25T10:53:00.393Z,14.40
2022-10-25T10:55:34.536Z,14.40
2022-10-25T10:58:06.111Z,14.40
2022-10-25T11:00:34.086Z,14.50
2022-10-25T11:03:00.948Z,14.50
2022-10-25T11:05:27.553Z,14.60
2022-10-25T11:07:57.176Z,14.60
2022-10-25T11:10:27.136Z,14.70
2022-10-25T11:13:10.000Z,14.70
2022-10-25T11:15:48.921Z,14.80
2022-10-25T11:18:17.002Z,14.80
2022-10-25T11:20:46.807Z,14.80
2022-10-25T11:23:22.765Z,14.90
2022-10-25T11:26:05.919Z,15.00
2022-10-25T11:29:06.304Z,15.00
2022-10-25T11:31:53.834Z,15.00
2022-10-25T11:34:52.870Z,15.10
2022-10-25T11:37:21.378Z,15.10
2022-10-25T11:40:17.753Z,15.20
2022-10-25T11:42:47.438Z,15.20
2022-10-25T11:45:23.439Z,15.20
2022-10-25T11:48:07.903Z,15.30
2022-10-25T11:50:45.482Z,15.30
2022-10-25T11:53:31.162Z,15.30
2022-10-25T11:56:27.634Z,15.40
2022-10-25T11:59:18.483Z,15.40
2022-10-25T12:01:58.366Z,15.40
2022-10-25T12:04:42.489Z,15.40
2022-10-25T12:07:32.073Z,15.40
2022-10-25T12:10:05.560Z,15.40
2022-10-25T12:12:45.284Z,15.50
2022-10-25T12:15:38.450Z,15.60
2022-10-25T12:18:06.777Z,15.60
2022-10-25T12:23:05.207Z,15.70
2022-10-25T12:25:40.034Z,15.80
2022-10-25T12:28:28.821Z,15.90
2022-10-25T12:31:15.016Z,15.90
2022-10-25T12:33:48.901Z,15.90
2022-10-25T12:36:38.491Z,16.00
2022-10-25T12:39:34.733Z,16.10
2022-10-25T12:42:11.304Z,16.00
2022-10-25T12:44:50.187Z,16.10
2022-10-25T12:47:35.791Z,16.10
2022-10-25T12:50:11.392Z,16.10
2022-10-25T12:53:00.276Z,16.10
2022-10-25T12:55:57.022Z,16.20
2022-10-25T12:58:56.541Z,16.30
2022-10-25T13:01:50.140Z,16.30
2022-10-25T13:04:58.690Z,16.30
2022-10-25T13:07:25.738Z,16.30
2022-10-25T13:09:52.557Z,16.40
2022-10-25T13:12:23.464Z,16.40
2022-10-25T13:14:53.896Z,16.40
2022-10-25T13:17:20.612Z,16.50
2022-10-25T13:19:55.813Z,16.40
2022-10-25T13:22:40.840Z,16.40
2022-10-25T13:25:13.513Z,16.40
2022-10-25T13:28:15.510Z,16.50
2022-10-25T13:30:43.487Z,16.40
2022-10-25T13:33:16.339Z,16.40
2022-10-25T13:35:48.835Z,16.40
2022-10-25T13:38:22.664Z,16.50
2022-10-25T13:41:16.965Z,16.40
2022-10-25T13:43:56.258Z,16.40
2022-10-25T13:46:41.602Z,16.40
2022-10-25T13:49:27.189Z,16.50
2022-10-25T13:51:59.218Z,16.40
2022-10-25T13:54:38.426Z,16.40
2022-10-25T13:57:25.028Z,16.40
2022-10-25T13:59:54.964Z,16.50
2022-10-25T14:02:22.180Z,16.40
2022-10-25T14:04:49.333Z,16.40
2022-10-25T14:07:44.848Z,16.40
2022-10-25T14:10:28.521Z,16.50
2022-10-25T14:13:01.238Z,16.50
2022-10-25T14:15:41.266Z,16.50
2022-10-25T14:18:16.373Z,16.50
2022-10-25T14:20:47.250Z,16.40
2022-10-25T14:23:22.856Z,16.40
2022-10-25T14:25:58.901Z,16.50
2022-10-25T14:28:27.603Z,16.40
2022-10-25T14:30:55.813Z,16.40
2022-10-25T14:33:37.873Z,16.50
2022-10-25T14:36:11.269Z,16.40
2022-10-25T14:38:55.254Z,16.40
2022-10-25T14:41:35.530Z,16.40
2022-10-25T14:44:03.106Z,16.40
2022-10-25T14:46:30.888Z,16.40
2022-10-25T14:48:59.660Z,16.30
2022-10-25T14:51:39.907Z,16.30
2022-10-25T14:54:07.776Z,16.30
2022-10-25T14:56:46.169Z,16.40
2022-10-25T14:59:20.178Z,16.30
2022-10-25T15:02:20.892Z,16.40
2022-10-25T15:04:54.043Z,16.30
2022-10-25T15:07:41.244Z,16.30
2022-10-25T15:10:34.549Z,16.30
2022-10-25T15:13:12.054Z,16.30
2022-10-25T15:15:44.094Z,16.30
2022-10-25T15:18:29.634Z,16.30
2022-10-25T15:21:11.714Z,16.30
2022-10-25T15:23:40.460Z,16.20
2022-10-25T15:26:29.934Z,16.30
2022-10-25T15:28:59.485Z,16.20
2022-10-25T15:31:28.681Z,16.20
2022-10-25T15:34:04.763Z,16.30
2022-10-25T15:36:33.036Z,16.20
2022-10-25T15:39:09.302Z,16.20
2022-10-25T15:41:38.187Z,16.20
2022-10-25T15:44:04.751Z,16.20
2022-10-25T15:46:33.777Z,16.20
2022-10-25T15:49:04.321Z,16.20
2022-10-25T15:51:34.242Z,16.20
2022-10-25T15:54:00.818Z,16.10
2022-10-25T15:56:27.629Z,16.20
2022-10-25T15:58:55.099Z,16.10
2022-10-25T16:01:21.893Z,16.10
2022-10-25T16:03:48.643Z,16.10
2022-10-25T16:06:15.325Z,16.10
2022-10-25T16:08:42.219Z,16.00
2022-10-25T16:11:18.777Z,16.00
2022-10-25T16:13:48.367Z,16.00
2022-10-25T16:16:41.481Z,16.00
2022-10-25T16:19:17.585Z,16.00
2022-10-25T16:21:44.923Z,15.90
2022-10-25T16:24:12.287Z,15.90
2022-10-25T16:26:46.020Z,15.90
2022-10-25T16:29:21.482Z,15.80
2022-10-25T16:31:48.470Z,15.80
2022-10-25T16:34:19.556Z,15.80
2022-10-25T16:36:47.816Z,15.80
2022-10-25T16:39:14.998Z,15.80
2022-10-25T16:41:45.925Z,15.70
2022-10-25T16:44:15.248Z,15.70
2022-10-25T16:46:42.205Z,15.70
2022-10-25T16:49:09.399Z,15.70
2022-10-25T16:51:36.742Z,15.70
2022-10-25T16:54:04.063Z,15.70
2022-10-25T16:56:31.326Z,15.70
2022-10-25T16:58:57.888Z,15.70
2022-10-25T17:01:34.243Z,15.70
2022-10-25T17:04:02.846Z,15.70
2022-10-25T17:06:41.668Z,15.60
2022-10-25T17:09:09.292Z,15.60
2022-10-25T17:11:36.260Z,15.60
2022-10-25T17:14:03.067Z,15.60
2022-10-25T17:16:29.633Z,15.60
2022-10-25T17:18:57.317Z,15.60
2022-10-25T17:21:24.212Z,15.60
2022-10-25T17:23:50.841Z,15.60
2022-10-25T17:26:17.706Z,15.60
2022-10-25T17:28:44.787Z,15.60
2022-10-25T17:31:13.721Z,15.60
2022-10-25T17:33:41.583Z,15.50
2022-10-25T17:36:11.769Z,15.50
2022-10-25T17:38:38.875Z,15.50
2022-10-25T17:41:06.212Z,15.50
2022-10-25T17:43:34.948Z,15.50
2022-10-25T17:46:07.072Z,15.50
2022-10-25T17:48:34.248Z,15.50
2022-10-25T17:51:06.562Z,15.40
2022-10-25T17:53:33.539Z,15.40
2022-10-25T17:56:11.455Z,15.40
2022-10-25T17:58:38.201Z,15.40
2022-10-25T18:01:05.643Z,15.40
2022-10-25T18:03:32.884Z,15.40
2022-10-25T18:06:06.990Z,15.30
2022-10-25T18:08:33.789Z,15.30
2022-10-25T18:11:15.006Z,15.30
2022-10-25T18:13:42.311Z,15.20
2022-10-25T18:16:10.527Z,15.20
2022-10-25T18:18:38.021Z,15.10
2022-10-25T18:21:05.139Z,15.00
2022-10-25T18:23:32.706Z,15.00
2022-10-25T18:25:59.349Z,15.00
2022-10-25T18:28:26.022Z,15.00
2022-10-25T18:30:57.884Z,15.00
2022-10-25T18:33:25.192Z,14.90
2022-10-25T18:36:02.879Z,14.90
2022-10-25T18:38:29.681Z,14.90
2022-10-25T18:40:56.550Z,14.80
2022-10-25T18:43:24.273Z,14.80
2022-10-25T18:45:55.568Z,14.80
2022-10-25T18:48:22.140Z,14.70
2022-10-25T18:50:48.771Z,14.70
2022-10-25T18:53:19.033Z,14.70
2022-10-25T18:55:47.506Z,14.80
2022-10-25T18:58:15.056Z,14.70
2022-10-25T19:00:43.460Z,14.80
2022-10-25T19:03:14.307Z,14.80
2022-10-25T19:05:41.506Z,14.80
2022-10-25T19:08:11.841Z,14.80
2022-10-25T19:10:42.265Z,14.80
2022-10-25T19:13:18.498Z,14.80
2022-10-25T19:15:48.849Z,14.80
2022-10-25T19:18:15.728Z,14.80
2022-10-25T19:20:46.300Z,14.80
2022-10-25T19:23:13.171Z,14.80
2022-10-25T19:25:39.722Z,14.80
2022-10-25T19:28:06.320Z,14.80
2022-10-25T19:30:37.737Z,14.70
2022-10-25T19:33:05.495Z,14.70
2022-10-25T19:35:32.681Z,14.70
2022-10-25T19:37:59.434Z,14.70
2022-10-25T19:40:26.074Z,14.60
2022-10-25T19:42:53.053Z,14.60
2022-10-25T19:45:19.877Z,14.60
2022-10-25T19:47:46.967Z,14.60
2022-10-25T19:50:14.084Z,14.60
2022-10-25T19:52:40.681Z,14.60
2022-10-25T19:55:07.568Z,14.50
2022-10-25T19:57:34.897Z,14.50
2022-10-25T20:00:04.084Z,14.50
2022-10-25T20:02:30.806Z,14.50
2022-10-25T20:04:57.492Z,14.50
2022-10-25T20:07:24.155Z,14.50
2022-10-25T20:09:50.774Z,14.50
2022-10-25T20:12:17.395Z,14.60
2022-10-25T20:14:43.949Z,14.50
2022-10-25T20:17:12.415Z,14.50
2022-10-25T20:19:38.973Z,14.50
2022-10-25T20:22:05.695Z,14.50
2022-10-25T20:24:32.273Z,14.50
2022-10-25T20:27:00.039Z,14.50
2022-10-25T20:29:27.365Z,14.50
2022-10-25T20:31:54.017Z,14.50
2022-10-25T20:34:20.824Z,14.50
2022-10-25T20:36:48.267Z,14.50
2022-10-25T20:39:14.997Z,14.40
2022-10-25T20:41:41.975Z,14.40
2022-10-25T20:44:09.631Z,14.30
2022-10-25T20:46:36.521Z,14.40
2022-10-25T20:49:04.727Z,14.40
2022-10-25T20:51:31.474Z,14.40
2022-10-25T20:53:58.147Z,14.40
2022-10-25T20:56:24.857Z,14.30
2022-10-25T20:58:51.628Z,14.30
2022-10-25T21:01:18.731Z,14.20
2022-10-25T21:03:45.430Z,14.20
2022-10-25T21:06:13.337Z,14.20
2022-10-25T21:08:40.057Z,14.20
2022-10-25T21:11:10.101Z,14.20
2022-10-25T21:13:37.505Z,14.10
2022-10-25T21:16:12.460Z,14.10
2022-10-25T21:18:39.562Z,14.00
2022-10-25T21:21:09.737Z,14.00
2022-10-25T21:23:36.507Z,14.00
2022-10-25T21:26:05.666Z,14.10
2022-10-25T21:28:35.079Z,14.10
2022-10-25T21:31:03.372Z,14.10
2022-10-25T21:33:29.966Z,14.10
2022-10-25T21:36:03.201Z,14.10
2022-10-25T21:38:29.761Z,14.20
2022-10-25T21:41:05.481Z,14.20
2022-10-25T21:43:32.124Z,14.20
2022-10-25T21:45:58.890Z,14.10
2022-10-25T21:48:25.633Z,14.10
2022-10-25T21:50:56.019Z,14.10
2022-10-25T21:53:22.633Z,14.00
2022-10-25T21:55:49.222Z,14.00
2022-10-25T21:58:15.865Z,14.00
2022-10-25T22:00:43.061Z,13.90
2022-10-25T22:03:09.634Z,13.90
2022-10-25T22:05:42.902Z,13.90
2022-10-25T22:08:09.504Z,13.90
2022-10-25T22:10:36.155Z,14.00
2022-10-25T22:13:02.830Z,14.00
2022-10-25T22:15:29.397Z,14.00
2022-10-25T22:17:55.975Z,14.00
2022-10-25T22:20:22.585Z,14.00
2022-10-25T22:22:49.473Z,14.00
2022-10-25T22:25:16.336Z,14.10
2022-10-25T22:30:10.958Z,14.10
2022-10-25T22:32:37.527Z,14.10
2022-10-25T22:35:04.265Z,14.10
2022-10-25T22:37:30.844Z,14.10
2022-10-25T22:39:57.406Z,14.00
2022-10-25T22:42:25.243Z,14.00
2022-10-25T22:44:51.795Z,14.00
2022-10-25T22:47:18.385Z,14.00
2022-10-25T22:49:45.017Z,14.00
2022-10-25T22:52:13.666Z,14.00
2022-10-25T22:54:40.253Z,14.00
2022-10-25T22:57:06.806Z,14.00
2022-10-25T22:59:33.501Z,14.00
2022-10-25T23:02:00.048Z,14.00
2022-10-25T23:04:26.704Z,14.00
2022-10-25T23:06:53.325Z,14.00
2022-10-25T23:09:20.048Z,14.00
2022-10-25T23:11:46.666Z,14.00
2022-10-25T23:14:16.565Z,14.10
2022-10-25T23:16:44.488Z,14.10
2022-10-25T23:19:11.183Z,14.10
2022-10-25T23:21:37.930Z,14.10
2022-10-25T23:24:04.869Z,14.10
2022-10-25T23:26:33.589Z,14.10
2022-10-25T23:29:00.925Z,14.10
2022-10-25T23:31:29.165Z,14.10
2022-10-25T23:33:57.599Z,14.10
2022-10-25T23:36:27.125Z,14.10
2022-10-25T23:38:54.877Z,14.00
2022-10-25T23:41:22.305Z,14.00
2022-10-25T23:43:49.866Z,14.00
2022-10-25T23:46:16.457Z,14.00
2022-10-25T23:48:43.006Z,14.00
2022-10-25T23:51:11.796Z,14.00
2022-10-25T23:53:38.454Z,14.00
2022-10-25T23:56:07.294Z,13.90
2022-10-25T23:58:34.252Z,13.90
